< < Back
Terminal Aerodrome Forecast


Current Version              Previous Versions:   1  2  3  4  5  6  7  8  9  

Terminal Aerodrome Forecast

409
FTUS42 KFFC 261126
TAFAHN
TAF
KAHN 261126Z 2612/2712 28005KT 6SM -RA SCT004 OVC060
      TEMPO 2612/2613 3SM -RA BR BKN004 OVC060
     FM261400 29007KT P6SM SCT035 OVC080
     FM261600 28009KT P6SM SCT100
     FM270400 24006KT P6SM BKN080=



Latest METAR

229
SAUS70 KWBC 262000 RRA
MTRAHN
METAR KAHN 261951Z VRB06G16KT 10SM CLR 14/M06 A3003 RMK AO2 SLP168
T01391056


USA.gov is the U.S. government's official web portal to all federal, state and local government web resources and services.